Time;durP1;ratioP1;P1;durP2;ratioP2;P2;SDS_P1;SDS_P2;PMS_P1;PMS_P2;Temp;Humidity;BMP_temperature;BMP_pressure;BME280_temperature;BME280_humidity;BME280_pressure;Samples;Min_cycle;Max_cycle;Signal;HPM_P1;HPM_P2
2022/03/21 00:02:22;;;;;;;16.08;9.65;;;;;;;;;;4979705;28;20019;-75
2022/03/21 00:04:51;;;;;;;15.70;10.52;;;;;;;;;;4974865;28;20057;-75
2022/03/21 00:07:18;;;;;;;17.58;10.35;;;;;;;;;;4974161;28;20078;-76
2022/03/21 00:09:44;;;;;;;17.35;10.35;;;;;;;;;;4971493;28;20031;-76
2022/03/21 00:12:13;;;;;;;17.65;11.27;;;;;;;;;;4978834;28;20034;-75
2022/03/21 00:14:42;;;;;;;21.10;13.43;;;;;;;;;;4960980;28;20546;-75
2022/03/21 00:17:09;;;;;;;26.10;14.73;;;;;;;;;;4984140;28;20042;-76
2022/03/21 00:19:35;;;;;;;20.55;13.05;;;;;;;;;;4984724;28;20031;-76
2022/03/21 00:22:02;;;;;;;24.98;14.77;;;;;;;;;;4976892;28;20034;-75
2022/03/21 00:24:31;;;;;;;20.73;12.93;;;;;;;;;;4978931;28;20059;-75
2022/03/21 00:26:58;;;;;;;19.30;12.38;;;;;;;;;;4952807;28;20039;-76
2022/03/21 00:29:27;;;;;;;18.05;11.65;;;26.50;1689.60;;;;;;4979688;28;20045;-75
2022/03/21 00:31:57;;;;;;;24.38;11.80;;;26.40;1689.60;;;;;;4957213;29;20043;-77
2022/03/21 00:34:23;;;;;;;18.25;12.10;;;26.40;1715.20;;;;;;4975316;28;20354;-76
2022/03/21 00:36:49;;;;;;;21.15;12.18;;;26.40;1715.20;;;;;;4982073;28;20519;-75
2022/03/21 00:39:17;;;;;;;18.75;12.43;;;;;;;;;;4967967;28;20035;-74
2022/03/21 00:41:44;;;;;;;23.70;12.93;;;;;;;;;;4970301;28;20030;-75
2022/03/21 00:44:11;;;;;;;22.73;11.93;;;;;;;;;;4973314;28;20042;-76
2022/03/21 00:46:39;;;;;;;18.55;11.63;;;;;;;;;;4980420;28;20023;-75
2022/03/21 00:49:08;;;;;;;20.40;12.15;;;;;;;;;;4971463;28;20057;-75
2022/03/21 00:51:34;;;;;;;20.70;12.50;;;;;;;;;;4969755;28;20023;-76
2022/03/21 00:54:00;;;;;;;20.48;12.82;;;;;;;;;;4970988;28;20069;-75
2022/03/21 00:56:26;;;;;;;24.48;14.55;;;;;;;;;;4963443;28;20078;-75
2022/03/21 00:58:54;;;;;;;20.85;13.90;;;;;;;;;;4979566;28;20011;-76
2022/03/21 01:01:20;;;;;;;21.90;13.05;;;;;;;;;;4982793;28;20105;-75
2022/03/21 01:03:48;;;;;;;21.48;12.90;;;;;;;;;;4978434;28;20540;-75
2022/03/21 01:06:14;;;;;;;22.75;13.85;;;;;;;;;;4971240;28;20058;-75
2022/03/21 01:08:40;;;;;;;22.30;11.50;;;26.20;1715.20;;;;;;4966370;28;20045;-75
2022/03/21 01:11:06;;;;;;;21.80;11.88;;;26.10;1689.60;;;;;;4973973;28;20531;-75
2022/03/21 01:13:33;;;;;;;16.73;10.82;;;;;;;;;;4950815;28;20027;-75
2022/03/21 01:15:59;;;;;;;22.15;13.30;;;;;;;;;;4980849;28;20051;-74
2022/03/21 01:18:29;;;;;;;21.35;13.40;;;26.10;1740.80;;;;;;4975886;28;20150;-74
2022/03/21 01:20:55;;;;;;;23.33;13.00;;;25.90;1766.40;;;;;;4977292;28;20018;-78
2022/03/21 01:23:20;;;;;;;23.27;11.20;;;25.80;1766.40;;;;;;4951660;28;20038;-74
2022/03/21 01:25:46;;;;;;;18.05;10.57;;;25.80;1792.00;;;;;;4979546;28;20108;-76
2022/03/21 01:28:13;;;;;;;19.73;10.52;;;25.80;1766.40;;;;;;4980463;28;20089;-74
2022/03/21 01:30:39;;;;;;;18.08;10.25;;;25.80;1792.00;;;;;;4978796;28;20370;-75
2022/03/21 01:33:07;;;;;;;14.05;7.40;;;25.70;1792.00;;;;;;4979391;28;20416;-75
2022/03/21 01:35:33;;;;;;;11.98;7.05;;;25.70;1817.60;;;;;;4987298;28;20452;-75
2022/03/21 01:37:59;;;;;;;14.20;8.05;;;;;;;;;;4962475;28;20377;-75
2022/03/21 01:40:25;;;;;;;49.00;27.23;;;25.60;1817.60;;;;;;4974722;28;20094;-76
2022/03/21 01:42:51;;;;;;;39.88;22.20;;;0.90;1843.20;;;;;;4964804;28;20003;-75
2022/03/21 01:45:18;;;;;;;16.38;10.10;;;0.80;1868.80;;;;;;4977089;28;20469;-76
2022/03/21 01:47:44;;;;;;;14.20;8.75;;;0.80;1868.80;;;;;;4978431;28;20026;-74
2022/03/21 01:50:12;;;;;;;15.00;8.48;;;0.90;1868.80;;;;;;4956287;29;20027;-74
2022/03/21 01:52:38;;;;;;;12.70;8.40;;;;;;;;;;4968948;28;20053;-75
2022/03/21 01:57:51;;;;;;;23.27;12.05;;;0.60;2201.60;;;;;;4971683;28;20081;-74
2022/03/21 02:00:17;;;;;;;29.65;13.23;;;0.60;1868.80;;;;;;4968071;28;20034;-75
2022/03/21 02:02:43;;;;;;;18.70;11.18;;;0.40;1920.00;;;;;;4974164;28;20015;-75
2022/03/21 02:05:09;;;;;;;22.25;12.25;;;0.40;1996.80;;;;;;4970551;28;20113;-76
2022/03/21 02:07:36;;;;;;;22.20;12.90;;;0.40;2201.60;;;;;;4978798;28;20018;-77
2022/03/21 02:10:04;;;;;;;19.20;11.55;;;0.30;2048.00;;;;;;4972687;28;20026;-76
2022/03/21 02:12:30;;;;;;;20.25;11.77;;;0.30;2048.00;;;;;;4971481;28;20030;-75
2022/03/21 02:14:56;;;;;;;20.05;12.20;;;0.20;2099.20;;;;;;4972591;28;20031;-76
2022/03/21 02:17:24;;;;;;;21.83;12.82;;;0.20;2099.20;;;;;;4982772;28;20021;-76
2022/03/21 02:19:51;;;;;;;22.45;14.18;;;0.20;2124.80;;;;;;4977883;28;20034;-76
2022/03/21 02:22:32;;;;;;;26.25;14.60;;;0.20;2124.80;;;;;;4963061;28;20035;-75
2022/03/21 02:25:22;;;;;;;29.00;16.45;;;0.20;2099.20;;;;;;4976356;28;20113;-77
2022/03/21 02:27:50;;;;;;;29.30;15.25;;;0.40;2201.60;;;;;;4976545;28;20027;-75
2022/03/21 02:30:16;;;;;;;30.50;18.50;;;;;;;;;;4980763;28;20039;-77
2022/03/21 02:32:43;;;;;;;37.55;21.58;;;;;;;;;;4964095;28;20031;-76
2022/03/21 02:35:09;;;;;;;43.78;23.67;;;;;;;;;;4981030;28;20037;-76
2022/03/21 02:37:36;;;;;;;41.22;23.58;;;;;;;;;;4979949;28;20033;-75
2022/03/21 02:40:03;;;;;;;42.47;23.63;;;;;;;;;;4974552;28;20027;-75
2022/03/21 02:42:29;;;;;;;37.75;21.98;;;;;;;;;;4977080;28;20035;-74
2022/03/21 02:44:56;;;;;;;30.33;17.50;;;;;;;;;;4969608;28;20054;-76
2022/03/21 02:47:22;;;;;;;30.35;17.98;;;;;;;;;;4974618;28;20022;-75
2022/03/21 02:49:49;;;;;;;31.75;17.88;;;;;;;;;;4946794;28;20039;-76
2022/03/21 02:52:16;;;;;;;27.15;15.60;;;;;;;;;;4972053;28;20039;-76
2022/03/21 02:54:42;;;;;;;26.75;14.40;;;;;;;;;;4975576;28;20055;-76
2022/03/21 02:57:08;;;;;;;25.90;15.35;;;;;;;;;;4977863;28;20019;-75
2022/03/21 02:59:34;;;;;;;26.55;16.13;;;;;;;;;;4974983;28;20034;-75
2022/03/21 03:02:00;;;;;;;25.77;15.68;;;;;;;;;;4957774;28;20074;-76
2022/03/21 03:04:27;;;;;;;29.65;18.30;;;;;;;;;;4979034;28;20031;-76
2022/03/21 03:06:53;;;;;;;64.03;33.47;;;;;;;;;;4964568;28;20484;-76
2022/03/21 03:09:20;;;;;;;54.97;28.83;;;;;;;;;;4980453;28;20034;-75
2022/03/21 03:11:46;;;;;;;46.20;25.17;;;;;;;;;;4955861;28;20078;-76
2022/03/21 03:14:12;;;;;;;30.10;16.83;;;;;;;;;;4973583;28;20392;-75
2022/03/21 03:16:38;;;;;;;25.33;14.35;;;;;;;;;;4968415;28;20019;-76
2022/03/21 03:19:05;;;;;;;23.48;13.23;;;;;;;;;;4966582;28;20027;-76
2022/03/21 03:21:35;;;;;;;23.05;13.10;;;;;;;;;;4963355;28;20039;-75
2022/03/21 03:24:01;;;;;;;23.92;13.65;;;;;;;;;;4970310;28;20027;-75
2022/03/21 03:26:28;;;;;;;24.88;15.25;;;;;;;;;;4976035;28;20078;-76
2022/03/21 03:28:54;;;;;;;25.73;15.73;;;;;;;;;;4979086;28;20173;-76
2022/03/21 03:31:20;;;;;;;25.35;15.65;;;;;;;;;;4968980;28;20031;-78
2022/03/21 03:33:48;;;;;;;27.02;16.17;;;;;;;;;;4976855;28;20109;-76
2022/03/21 03:36:18;;;;;;;26.33;16.33;;;;;;;;;;4983933;28;20023;-76
2022/03/21 03:38:47;;;;;;;24.55;14.95;;;0.10;2022.40;;;;;;4952312;28;20034;-76
2022/03/21 03:41:13;;;;;;;31.02;15.82;;;0.00;2099.20;;;;;;4974831;28;20054;-81
2022/03/21 03:43:43;;;;;;;29.77;16.45;;;0.20;1996.80;;;;;;4976602;28;20038;-76
2022/03/21 03:46:09;;;;;;;34.08;19.52;;;12.90;2022.40;;;;;;4977456;28;20424;-76
2022/03/21 03:48:35;;;;;;;37.83;21.10;;;13.10;2022.40;;;;;;4974071;28;20366;-76
2022/03/21 03:51:03;;;;;;;32.67;18.45;;;13.00;2048.00;;;;;;4976900;28;20034;-76
2022/03/21 03:53:29;;;;;;;25.48;14.50;;;13.00;2073.60;;;;;;4976845;28;20039;-75
2022/03/21 03:55:55;;;;;;;19.85;11.98;;;13.10;2073.60;;;;;;4966828;28;20019;-75
2022/03/21 03:58:21;;;;;;;22.45;11.93;;;13.10;2073.60;;;;;;4961547;28;20064;-79
2022/03/21 04:00:47;;;;;;;14.07;9.20;;;13.20;2073.60;;;;;;4983224;28;20033;-76
2022/03/21 04:05:57;;;;;;;15.55;8.90;;;13.20;2048.00;;;;;;4972419;28;20094;-75
2022/03/21 04:08:25;;;;;;;18.60;10.32;;;13.10;2201.60;;;;;;4969579;28;20460;-77
2022/03/21 04:10:51;;;;;;;18.50;9.98;;;13.50;2073.60;;;;;;4962674;28;20030;-76
2022/03/21 04:13:17;;;;;;;21.92;10.63;;;13.30;2073.60;;;;;;4977542;28;20039;-76
2022/03/21 04:15:43;;;;;;;25.08;11.55;;;13.30;2073.60;;;;;;4979705;28;20457;-75
2022/03/21 04:18:08;;;;;;;25.40;11.75;;;13.40;2099.20;;;;;;4979548;28;20058;-77
2022/03/21 04:20:36;;;;;;;24.40;12.43;;;13.40;2099.20;;;;;;4974909;28;20082;-78
2022/03/21 04:23:03;;;;;;;32.25;13.60;;;13.40;2099.20;;;;;;4966903;28;20027;-75
2022/03/21 04:25:29;;;;;;;42.95;17.42;;;13.40;2099.20;;;;;;4964779;28;20451;-76
2022/03/21 04:27:55;;;;;;;46.03;19.27;;;13.40;2099.20;;;;;;4972771;28;20122;-75
2022/03/21 04:30:22;;;;;;;50.60;18.98;;;13.40;2099.20;;;;;;4975886;28;20091;-76
2022/03/21 04:32:48;;;;;;;49.33;19.45;;;13.40;2124.80;;;;;;4970385;28;20077;-77
2022/03/21 04:35:14;;;;;;;48.95;18.95;;;13.40;2124.80;;;;;;4975992;28;20022;-76
2022/03/21 04:37:40;;;;;;;42.05;18.63;;;13.40;2124.80;;;;;;4971762;28;20114;-76
2022/03/21 04:40:08;;;;;;;48.72;18.38;;;13.10;2124.80;;;;;;4968382;28;20030;-75
2022/03/21 04:42:38;;;;;;;34.53;15.95;;;13.40;2150.40;;;;;;4973026;28;20027;-76
2022/03/21 04:45:05;;;;;;;35.33;16.10;;;13.40;2124.80;;;;;;4968490;28;20028;-75
2022/03/21 04:47:31;;;;;;;31.92;14.88;;;13.50;2150.40;;;;;;4976435;28;20019;-78
2022/03/21 04:49:58;;;;;;;30.40;15.43;;;13.60;2150.40;;;;;;4967438;28;20401;-74
2022/03/21 04:52:38;;;;;;;27.75;13.43;;;13.40;2150.40;;;;;;4965851;28;20051;-75
2022/03/21 04:55:07;;;;;;;25.10;13.38;;;13.40;2124.80;;;;;;4957409;29;20401;-79
2022/03/21 04:57:35;;;;;;;26.52;13.82;;;13.40;2150.40;;;;;;4970174;28;20027;-75
2022/03/21 05:00:02;;;;;;;23.08;13.75;;;13.40;2201.60;;;;;;4965067;28;20039;-76
2022/03/21 05:02:29;;;;;;;25.08;13.80;;;13.30;2201.60;;;;;;4963360;28;20491;-75
2022/03/21 05:04:55;;;;;;;24.55;14.00;;;13.30;2201.60;;;;;;4952111;28;20031;-76
2022/03/21 05:07:20;;;;;;;28.33;16.13;;;13.20;2201.60;;;;;;4980765;28;20022;-77
2022/03/21 05:09:48;;;;;;;28.45;15.75;;;13.00;2201.60;;;;;;4978823;28;20035;-84
2022/03/21 05:12:14;;;;;;;22.10;13.98;;;12.90;2201.60;;;;;;4974727;28;20030;-76
2022/03/21 05:14:39;;;;;;;23.92;13.90;;;0.30;2201.60;;;;;;4982848;28;20035;-77
2022/03/21 05:17:06;;;;;;;26.85;14.60;;;0.70;2201.60;;;;;;4970881;28;20030;-76
2022/03/21 05:19:36;;;;;;;25.27;14.85;;;;;;;;;;4978892;28;20035;-76
2022/03/21 05:22:05;;;;;;;31.25;16.10;;;;;;;;;;4981159;28;20030;-78
2022/03/21 05:32:45;;;;;;;37.85;19.30;;;;;;;;;;4971583;28;20452;-76
2022/03/21 05:37:57;;;;;;;34.47;21.30;;;;;;;;;;4983471;28;20033;-76
2022/03/21 05:40:31;;;;;;;42.60;22.40;;;;;;;;;;4962423;28;20049;-76
2022/03/21 05:42:57;;;;;;;43.25;22.48;;;;;;;;;;4981918;28;20023;-77
2022/03/21 05:45:26;;;;;;;41.00;23.58;;;;;;;;;;4984734;28;20022;-75
2022/03/21 05:50:38;;;;;;;42.08;24.95;;;;;;;;;;4973873;28;21635;-75
2022/03/21 05:53:05;;;;;;;37.53;24.42;;;;;;;;;;4983683;28;20053;-75
2022/03/21 05:55:32;;;;;;;41.05;25.48;;;;;;;;;;4966849;28;20089;-76
2022/03/21 05:58:01;;;;;;;41.42;25.83;;;;;;;;;;4966720;28;20504;-76
2022/03/21 06:00:27;;;;;;;38.15;26.08;;;;;;;;;;4985715;28;20003;-76
2022/03/21 06:02:57;;;;;;;41.72;25.40;;;;;;;;;;4977192;28;20027;-76
2022/03/21 06:08:02;;;;;;;35.28;23.30;;;;;;;;;;5449858;23;20047;-75
2022/03/21 06:10:29;;;;;;;39.10;24.40;;;;;;;;;;4942255;29;20028;-73
2022/03/21 06:12:55;;;;;;;37.17;25.13;;;;;;;;;;4923915;29;20039;-74
2022/03/21 06:15:22;;;;;;;42.55;25.60;;;;;;;;;;4928823;29;20038;-77
2022/03/21 06:17:48;;;;;;;37.08;24.98;;;;;;;;;;4921825;29;20028;-83
2022/03/21 06:20:15;;;;;;;40.53;26.60;;;;;;;;;;4917583;29;20394;-84
2022/03/21 06:22:41;;;;;;;39.22;25.13;;;;;;;;;;4917531;29;20031;-74
2022/03/21 06:25:08;;;;;;;40.85;25.85;;;;;;;;;;4897114;29;20035;-79
2022/03/21 06:27:37;;;;;;;39.50;25.05;;;;;;;;;;4917944;29;20051;-85
2022/03/21 06:30:06;;;;;;;37.88;25.05;;;;;;;;;;4917647;29;20049;-84
2022/03/21 06:32:32;;;;;;;250.27;173.85;;;;;;;;;;4918779;29;20397;-86
2022/03/21 06:35:01;;;;;;;48.13;41.60;;;;;;;;;;4930225;29;20043;-84
2022/03/21 06:37:27;;;;;;;40.90;30.73;;;;;;;;;;4915922;29;20116;-81
2022/03/21 06:39:53;;;;;;;38.08;26.75;;;;;;;;;;4914349;29;20135;-77
2022/03/21 06:42:27;;;;;;;42.22;26.83;;;;;;;;;;4915938;29;20035;-76
2022/03/21 06:44:53;;;;;;;;;;;;;;;;;;4912476;29;20567;-78
2022/03/21 06:47:21;;;;;;;37.60;26.50;;;;;;;;;;4911536;29;19998;-73
2022/03/21 06:49:49;;;;;;;40.95;26.77;;;;;;;;;;4915469;29;20067;-77
2022/03/21 06:52:18;;;;;;;38.30;26.55;;;;;;;;;;4908700;29;20031;-73
2022/03/21 06:54:45;;;;;;;39.10;26.00;;;;;;;;;;4917053;29;20059;-77
2022/03/21 06:57:11;;;;;;;38.20;27.20;;;;;;;;;;4915919;29;20020;-91
2022/03/21 06:59:37;;;;;;;33.20;25.65;;;;;;;;;;4913766;29;20050;-85
2022/03/21 07:02:06;;;;;;;32.40;24.17;;;;;;;;;;4915531;29;20032;-90
2022/03/21 07:04:32;;;;;;;35.88;24.63;;;;;;;;;;4912790;29;20427;-78
2022/03/21 07:06:58;;;;;;;34.10;24.20;;;;;;;;;;4911470;29;20051;-77
2022/03/21 07:09:25;;;;;;;33.90;26.33;;;;;;;;;;4913221;29;20048;-73
2022/03/21 07:11:52;;;;;;;32.15;24.60;;;;;;;;;;4914223;29;20030;-77
2022/03/21 07:14:18;;;;;;;40.40;26.05;;;;;;;;;;4914370;29;20040;-74
2022/03/21 07:16:45;;;;;;;36.67;26.55;;;;;;;;;;4914908;29;20032;-75
2022/03/21 07:19:11;;;;;;;39.13;29.15;;;;;;;;;;4911964;29;20055;-81
2022/03/21 07:21:37;;;;;;;33.67;25.85;;;;;;;;;;4928951;29;20032;-75
2022/03/21 07:24:06;;;;;;;33.70;25.98;;;;;;;;;;4915688;29;20026;-76
2022/03/21 07:26:32;;;;;;;36.38;25.55;;;;;;;;;;4912312;29;20170;-76
2022/03/21 07:28:58;;;;;;;39.13;24.98;;;;;;;;;;4913698;29;20044;-75
2022/03/21 07:31:24;;;;;;;34.92;25.45;;;;;;;;;;4915185;29;20555;-75
2022/03/21 07:33:50;;;;;;;37.83;25.48;;;;;;;;;;4914958;29;20036;-75
2022/03/21 07:36:17;;;;;;;36.33;25.10;;;;;;;;;;4911742;29;20044;-75
2022/03/21 07:38:43;;;;;;;33.60;25.10;;;;;;;;;;4916486;29;20157;-77
2022/03/21 07:41:09;;;;;;;35.72;25.17;;;;;;;;;;4915957;29;20076;-78
2022/03/21 07:43:35;;;;;;;31.30;23.52;;;;;;;;;;4912680;29;20028;-75
2022/03/21 07:48:46;;;;;;;29.85;22.27;;;;;;;;;;4913006;29;20051;-76
2022/03/21 07:51:13;;;;;;;31.70;22.48;;;;;;;;;;4910626;29;20080;-78
2022/03/21 07:53:39;;;;;;;28.45;21.33;;;;;;;;;;4914532;29;20039;-85
2022/03/21 07:56:05;;;;;;;29.17;20.30;;;;;;;;;;4914706;29;20025;-74
2022/03/21 07:58:32;;;;;;;25.92;20.40;;;;;;;;;;4912766;29;20024;-75
2022/03/21 08:01:01;;;;;;;32.80;20.17;;;;;;;;;;4912904;29;20087;-78
2022/03/21 08:03:27;;;;;;;23.00;16.40;;;;;;;;;;4909718;29;20033;-76
2022/03/21 08:05:53;;;;;;;24.83;16.30;;;;;;;;;;4914069;29;20482;-78
2022/03/21 08:08:20;;;;;;;23.42;16.40;;;;;;;;;;4909484;29;20071;-77
2022/03/21 08:10:46;;;;;;;25.30;18.45;;;;;;;;;;4915747;29;20024;-77
2022/03/21 08:13:17;;;;;;;24.13;18.35;;;;;;;;;;4915234;29;20028;-74
2022/03/21 08:15:43;;;;;;;26.70;19.95;;;;;;;;;;4911654;29;20028;-73
2022/03/21 08:18:11;;;;;;;31.23;20.77;;;;;;;;;;4913763;29;20114;-77
2022/03/21 08:20:39;;;;;;;28.50;20.55;;;;;;;;;;4915996;29;20035;-75
2022/03/21 08:23:09;;;;;;;28.30;20.63;;;;;;;;;;4914900;29;20093;-74
2022/03/21 08:25:38;;;;;;;34.28;21.98;;;;;;;;;;4914385;29;20486;-75
2022/03/21 08:28:05;;;;;;;40.15;22.17;;;;;;;;;;4915248;29;20036;-73
2022/03/21 08:30:35;;;;;;;33.17;23.10;;;;;;;;;;4928509;29;20086;-73
2022/03/21 08:33:02;;;;;;;33.25;23.17;;;;;;;;;;4911211;29;20032;-78
2022/03/21 08:35:29;;;;;;;44.00;24.90;;;;;;;;;;4930004;29;20036;-73
2022/03/21 08:37:55;;;;;;;34.38;22.08;;;;;;;;;;4914584;29;20038;-71
2022/03/21 08:40:21;;;;;;;32.40;22.15;;;;;;;;;;4916532;29;20032;-72
2022/03/21 08:42:47;;;;;;;34.58;23.67;;;;;;;;;;4919519;29;20449;-69
2022/03/21 08:45:15;;;;;;;36.97;22.77;;;;;;;;;;4914352;29;20403;-70
2022/03/21 08:47:41;;;;;;;30.92;21.30;;;;;;;;;;4918213;29;20039;-72
2022/03/21 08:50:07;;;;;;;34.33;23.52;;;;;;;;;;4919259;29;20040;-73
2022/03/21 08:52:34;;;;;;;31.50;21.50;;;;;;;;;;4918142;29;20035;-71
2022/03/21 08:55:00;;;;;;;38.10;22.33;;;;;;;;;;4913884;29;20029;-73
2022/03/21 08:57:30;;;;;;;34.13;21.83;;;;;;;;;;4920759;29;20040;-76
2022/03/21 08:59:56;;;;;;;34.78;20.40;;;;;;;;;;4905487;29;20107;-72
2022/03/21 09:02:22;;;;;;;30.23;20.90;;;;;;;;;;4918512;29;20028;-72
2022/03/21 09:04:49;;;;;;;30.33;20.50;;;;;;;;;;4919159;29;20028;-73
2022/03/21 09:07:15;;;;;;;32.97;19.42;;;;;;;;;;4917863;29;20034;-73
2022/03/21 09:09:46;;;;;;;37.63;20.02;;;;;;;;;;4919349;29;20100;-72
2022/03/21 09:12:12;;;;;;;28.00;17.92;;;;;;;;;;4920049;29;20035;-72
2022/03/21 09:14:38;;;;;;;31.65;17.88;;;;;;;;;;4913074;29;20439;-72
2022/03/21 09:17:05;;;;;;;22.85;13.82;;;;;;;;;;4919185;29;20032;-72
2022/03/21 09:19:31;;;;;;;22.48;15.10;;;;;;;;;;4930471;29;20041;-71
2022/03/21 09:21:58;;;;;;;24.60;16.08;;;;;;;;;;4915229;29;20028;-71
2022/03/21 09:24:24;;;;;;;22.88;15.27;;;;;;;;;;4919972;29;20027;-71
2022/03/21 09:26:50;;;;;;;30.10;18.95;;;;;;;;;;4919667;29;20052;-71
2022/03/21 09:29:19;;;;;;;25.45;15.63;;;;;;;;;;4917392;29;20454;-70
2022/03/21 09:31:47;;;;;;;22.13;14.68;;;;;;;;;;4918267;29;20150;-71
2022/03/21 09:34:14;;;;;;;28.75;15.32;;;;;;;;;;4918808;29;20067;-71
2022/03/21 09:36:40;;;;;;;26.00;16.08;;;;;;;;;;4918080;29;20028;-74
2022/03/21 09:39:07;;;;;;;28.45;17.42;;;;;;;;;;4918817;29;20039;-72
2022/03/21 09:41:33;;;;;;;30.60;16.73;;;;;;;;;;4918910;29;20028;-73
2022/03/21 09:44:00;;;;;;;28.77;16.00;;;;;;;;;;4918583;29;20418;-73
2022/03/21 09:46:26;;;;;;;24.77;16.38;;;;;;;;;;4917455;29;20054;-71
2022/03/21 09:48:54;;;;;;;26.85;15.98;;;;;;;;;;4917246;29;20047;-71
2022/03/21 09:51:21;;;;;;;26.70;16.30;;;;;;;;;;4916832;29;20039;-70
2022/03/21 09:53:47;;;;;;;28.92;15.82;;;;;;;;;;4916965;29;20107;-71
2022/03/21 09:56:14;;;;;;;28.40;15.98;;;;;;;;;;4914482;29;20399;-71
2022/03/21 09:58:41;;;;;;;22.33;14.63;;;;;;;;;;4916468;29;20079;-71
2022/03/21 10:01:07;;;;;;;23.92;15.48;;;;;;;;;;4916721;29;20079;-72
2022/03/21 10:03:36;;;;;;;33.13;15.93;;;;;;;;;;4915860;29;20399;-72
2022/03/21 10:06:02;;;;;;;25.75;15.48;;;;;;;;;;4918474;29;20024;-71
2022/03/21 10:08:28;;;;;;;25.38;16.05;;;;;;;;;;4918236;29;20512;-70
2022/03/21 10:10:59;;;;;;;25.45;15.25;;;;;;;;;;4918346;29;20043;-74
2022/03/21 10:13:29;;;;;;;22.92;15.95;;;;;;;;;;4919536;29;20031;-70
2022/03/21 10:16:08;;;;;;;27.15;16.27;;;;;;;;;;4918997;29;20039;-72
2022/03/21 10:18:34;;;;;;;22.70;14.95;;;;;;;;;;4913125;29;20031;-72
2022/03/21 10:21:10;;;;;;;23.55;14.85;;;;;;;;;;4916973;29;20024;-73
2022/03/21 10:23:36;;;;;;;20.73;14.23;;;;;;;;;;4918566;29;20028;-72
2022/03/21 10:26:22;;;;;;;28.65;15.82;;;;;;;;;;4911544;29;20027;-72
2022/03/21 10:28:49;;;;;;;23.85;14.55;;;;;;;;;;4913845;29;20184;-69
2022/03/21 10:31:32;;;;;;;29.33;15.73;;;;;;;;;;4911350;29;20029;-71
2022/03/21 10:34:02;;;;;;;18.58;14.05;;;;;;;;;;4915158;29;20039;-71
2022/03/21 10:36:28;;;;;;;25.13;14.95;;;;;;;;;;4942995;29;20479;-69
2022/03/21 10:39:06;;;;;;;23.13;13.35;;;;;;;;;;4921838;29;20064;-69
2022/03/21 10:41:36;;;;;;;26.90;15.10;;;;;;;;;;4920528;29;20032;-75
2022/03/21 10:44:03;;;;;;;21.48;14.07;;;;;;;;;;4922945;29;20032;-75
2022/03/21 10:46:29;;;;;;;23.42;14.68;;;;;;;;;;4923991;29;20024;-76
2022/03/21 10:49:21;;;;;;;27.65;14.23;;;;;;;;;;4926996;29;20032;-76
2022/03/21 10:51:53;;;;;;;27.83;13.25;;;;;;;;;;4863695;29;20096;-72
2022/03/21 10:54:35;;;;;;;29.17;14.98;;;;;;;;;;4876500;29;20045;-72
2022/03/21 10:57:02;;;;;;;22.98;14.43;;;;;;;;;;4876156;29;20045;-72
2022/03/21 10:59:28;;;;;;;28.35;14.63;;;;;;;;;;4876264;29;20033;-73
2022/03/21 11:02:13;;;;;;;22.80;14.63;;;;;;;;;;4877708;29;20028;-73
2022/03/21 11:04:41;;;;;;;21.25;13.57;;;;;;;;;;4877664;29;20033;-74
2022/03/21 11:07:11;;;;;;;27.23;15.60;;;;;;;;;;4876574;29;20127;-73
2022/03/21 11:09:39;;;;;;;27.50;15.63;;;;;;;;;;4874242;29;20193;-74
2022/03/21 11:12:11;;;;;;;24.60;15.52;;;;;;;;;;4887674;29;20029;-78
2022/03/21 11:14:40;;;;;;;20.73;14.68;;;;;;;;;;4881040;29;20037;-78
2022/03/21 11:17:07;;;;;;;26.92;15.00;;;;;;;;;;4863570;29;20029;-75
2022/03/21 11:19:43;;;;;;;22.08;14.65;;;;;;;;;;4880988;29;20033;-77
2022/03/21 11:22:10;;;;;;;25.83;16.00;;;;;;;;;;4881547;29;20048;-72
2022/03/21 11:24:38;;;;;;;22.98;14.65;;;;;;;;;;4877685;29;20104;-71
2022/03/21 11:27:04;;;;;;;21.40;15.00;;;;;;;;;;4877881;29;20503;-72
2022/03/21 11:29:56;;;;;;;25.48;15.52;;;;;;;;;;4907723;29;20048;-73
2022/03/21 11:32:26;;;;;;;26.13;15.43;;;;;;;;;;4926472;29;20040;-72
2022/03/21 11:35:10;;;;;;;25.10;15.27;;;;;;;;;;4914184;29;20549;-72
2022/03/21 11:37:37;;;;;;;28.90;14.63;;;;;;;;;;4949258;28;20051;-74
2022/03/21 11:40:31;;;;;;;19.48;13.73;;;;;;;;;;4937146;29;20096;-73
2022/03/21 11:43:22;;;;;;;25.30;14.43;;;;;;;;;;4933113;29;20028;-73
2022/03/21 11:46:02;;;;;;;20.52;14.50;;;;;;;;;;4939773;28;20047;-74
2022/03/21 11:48:57;;;;;;;24.98;14.85;;;;;;;;;;4899251;29;20045;-73
2022/03/21 11:55:01;;;;;;;21.15;14.25;;;;;;;;;;4838462;29;20076;-75
2022/03/21 11:58:12;;;;;;;22.25;13.80;;;;;;;;;;4834745;29;20041;-77
2022/03/21 12:00:58;;;;;;;21.30;13.95;;;;;;;;;;4830040;29;20042;-76
2022/03/21 12:03:28;;;;;;;20.45;13.40;;;;;;;;;;4843424;29;20041;-76
2022/03/21 12:05:54;;;;;;;18.88;13.10;;;;;;;;;;4827866;29;20041;-76
2022/03/21 12:08:33;;;;;;;19.70;13.40;;;;;;;;;;4842753;29;20114;-74
2022/03/21 12:10:59;;;;;;;20.42;12.77;;;;;;;;;;4836114;29;20049;-74
2022/03/21 12:13:28;;;;;;;20.58;12.93;;;;;;;;;;4846811;29;20086;-77
2022/03/21 12:15:54;;;;;;;19.95;12.93;;;;;;;;;;4850454;29;20030;-74
2022/03/21 12:18:40;;;;;;;17.70;12.38;;;;;;;;;;4849504;29;21355;-74
2022/03/21 12:21:12;;;;;;;19.73;12.18;;;;;;;;;;4846669;29;20049;-73
2022/03/21 12:23:38;;;;;;;17.38;12.27;;;;;;;;;;4852863;29;20048;-74
2022/03/21 12:26:25;;;;;;;16.08;11.40;;;;;;;;;;4877675;29;20048;-74
2022/03/21 12:31:47;;;;;;;17.60;12.43;;;;;;;;;;4898717;29;20078;-74
2022/03/21 12:34:32;;;;;;;19.73;11.55;;;;;;;;;;4926554;29;20042;-73
2022/03/21 12:37:12;;;;;;;14.88;10.90;;;;;;;;;;4937710;29;20051;-74
2022/03/21 12:40:04;;;;;;;15.60;10.68;;;;;;;;;;4932543;29;20020;-73
2022/03/21 12:42:46;;;;;;;17.65;10.45;;;;;;;;;;4889247;29;20047;-75
2022/03/21 12:45:22;;;;;;;15.05;10.65;;;;;;;;;;4900546;29;20044;-77
2022/03/21 12:47:49;;;;;;;15.07;11.55;;;;;;;;;;4896794;29;20120;-72
2022/03/21 12:50:22;;;;;;;17.38;10.65;;;;;;;;;;4891677;29;20042;-72
2022/03/21 12:53:00;;;;;;;15.23;10.80;;;;;;;;;;4881742;29;20052;-78
2022/03/21 12:55:33;;;;;;;36.80;11.85;;;;;;;;;;4889247;29;20037;-75
2022/03/21 12:58:06;;;;;;;14.13;10.18;;;;;;;;;;4898918;29;20040;-74
2022/03/21 13:00:38;;;;;;;15.95;10.00;;;;;;;;;;4884787;29;20055;-76
2022/03/21 13:03:27;;;;;;;14.98;9.75;;;;;;;;;;4884136;29;20236;-75
2022/03/21 13:11:42;;;;;;;14.80;9.32;;;;;;;;;;4883738;29;20040;-76
2022/03/21 13:14:15;;;;;;;20.70;10.73;;;;;;;;;;4889123;29;20036;-76
2022/03/21 13:17:03;;;;;;;13.60;9.45;;;;;;;;;;4876836;29;20036;-73
2022/03/21 13:19:33;;;;;;;15.93;9.82;;;;;;;;;;4897858;29;20040;-74
2022/03/21 13:22:02;;;;;;;20.65;10.30;;;;;;;;;;4921135;29;20033;-73
2022/03/21 13:24:38;;;;;;;16.45;10.55;;;;;;;;;;4923588;29;20032;-76
2022/03/21 13:27:04;;;;;;;17.65;9.93;;;;;;;;;;4928844;29;20035;-76
2022/03/21 13:30:02;;;;;;;27.98;17.17;;;;;;;;;;4951416;28;20052;-72
2022/03/21 13:32:40;;;;;;;25.08;14.43;;;;;;;;;;4915481;29;20131;-76
2022/03/21 13:35:08;;;;;;;18.83;10.45;;;;;;;;;;4935479;29;20039;-73
2022/03/21 13:37:37;;;;;;;14.80;10.55;;;;;;;;;;4927160;29;20046;-75
2022/03/21 13:40:04;;;;;;;21.40;11.48;;;;;;;;;;4925202;29;20028;-73
2022/03/21 13:42:31;;;;;;;15.60;10.90;;;;;;;;;;4924748;29;20028;-71
2022/03/21 13:45:02;;;;;;;15.95;10.25;;;;;;;;;;4924482;29;20029;-73
2022/03/21 13:47:28;;;;;;;14.15;9.73;;;;;;;;;;4928748;29;20024;-75
2022/03/21 13:53:04;;;;;;;16.67;11.43;;;;;;;;;;4932616;28;20096;-79
2022/03/21 13:55:33;;;;;;;16.67;10.60;;;;;;;;;;4932333;29;20084;-74
2022/03/21 13:58:04;;;;;;;14.18;9.57;;;;;;;;;;4936392;29;20550;-74
2022/03/21 14:00:38;;;;;;;13.07;9.57;;;;;;;;;;4921534;29;20041;-77
2022/03/21 14:03:06;;;;;;;23.50;10.02;;;;;;;;;;4933886;29;20040;-77
2022/03/21 14:05:34;;;;;;;15.02;9.90;;;;;;;;;;4955006;28;20036;-74
2022/03/21 14:08:28;;;;;;;16.52;10.43;;;;;;;;;;4928697;29;20028;-76
2022/03/21 14:11:01;;;;;;;16.75;9.63;;;;;;;;;;4919087;29;20143;-75
2022/03/21 14:13:27;;;;;;;;;;;;;;;;;;4925493;29;20431;-74
2022/03/21 14:15:55;;;;;;;17.33;10.40;;;;;;;;;;4921895;29;19922;-73
2022/03/21 14:18:25;;;;;;;15.35;9.57;;;;;;;;;;4918623;29;20106;-74
2022/03/21 14:20:51;;;;;;;16.48;9.60;;;;;;;;;;4933018;29;20069;-76
2022/03/21 14:23:17;;;;;;;14.95;9.70;;;;;;;;;;4926746;29;20024;-75
2022/03/21 14:28:28;;;;;;;17.30;10.45;;;;;;;;;;4932192;29;20088;-73
2022/03/21 14:30:57;;;;;;;18.40;9.90;;;;;;;;;;4915411;29;20028;-74
2022/03/21 14:33:24;;;;;;;18.70;10.82;;;;;;;;;;4917408;29;20088;-72
2022/03/21 14:35:50;;;;;;;14.45;9.90;;;;;;;;;;4923348;29;20032;-73
2022/03/21 14:38:20;;;;;;;16.92;10.57;;;;;;;;;;4918702;29;20048;-76
2022/03/21 14:40:46;;;;;;;18.60;10.35;;;;;;;;;;4933812;29;20554;-72
2022/03/21 14:43:12;;;;;;;15.35;10.25;;;;;;;;;;4918831;29;20062;-72